Time;durP1;ratioP1;P1;durP2;ratioP2;P2;SDS_P1;SDS_P2;PMS_P1;PMS_P2;Temp;Humidity;BMP_temperature;BMP_pressure;BME280_temperature;BME280_humidity;BME280_pressure;Samples;Min_cycle;Max_cycle;Signal;HPM_P1;HPM_P2
2022/11/26 07:00:59;;;;;;;15.82;4.50;;;6.30;99.90;;;;;;5710731;23;20047;-83
2022/11/26 07:03:26;;;;;;;15.18;4.43;;;6.30;99.90;;;;;;4952385;28;20090;-82
2022/11/26 07:05:59;;;;;;;14.63;4.50;;;6.30;99.90;;;;;;4953905;28;20093;-82
2022/11/26 07:08:25;;;;;;;11.95;4.47;;;6.40;99.90;;;;;;4965940;28;20062;-83
2022/11/26 07:10:52;;;;;;;10.95;4.18;;;6.40;99.90;;;;;;4975797;28;20059;-81
2022/11/26 07:13:19;;;;;;;8.20;3.70;;;6.40;99.90;;;;;;4982648;28;20050;-81
2022/11/26 07:15:45;;;;;;;12.75;5.57;;;6.50;99.90;;;;;;4966469;28;20050;-82
2022/11/26 07:18:12;;;;;;;15.77;6.40;;;6.50;99.90;;;;;;4987447;28;20047;-81
2022/11/26 07:20:39;;;;;;;10.82;4.78;;;6.50;99.90;;;;;;4983472;28;20046;-82
2022/11/26 07:23:05;;;;;;;12.73;5.10;;;6.50;99.90;;;;;;4987796;28;20405;-80
2022/11/26 07:25:32;;;;;;;14.30;4.38;;;6.50;99.90;;;;;;4974104;28;20066;-79
2022/11/26 07:27:59;;;;;;;8.65;3.30;;;6.50;99.90;;;;;;4987042;28;20055;-82
2022/11/26 07:30:25;;;;;;;8.77;4.18;;;6.50;99.90;;;;;;4974852;28;20055;-81
2022/11/26 07:32:52;;;;;;;10.45;4.47;;;6.50;99.90;;;;;;4969935;28;20057;-81
2022/11/26 07:35:19;;;;;;;9.77;4.30;;;6.50;99.90;;;;;;4975026;28;20043;-83
2022/11/26 07:37:45;;;;;;;12.23;4.20;;;6.50;99.90;;;;;;4978387;28;20049;-82
2022/11/26 07:40:12;;;;;;;9.95;4.43;;;6.50;99.90;;;;;;4988193;28;20518;-81
2022/11/26 07:42:39;;;;;;;8.65;4.47;;;6.40;99.90;;;;;;4992220;28;20057;-81
2022/11/26 07:45:06;;;;;;;10.18;4.38;;;6.40;99.90;;;;;;4972432;28;20059;-81
2022/11/26 07:47:33;;;;;;;11.35;3.40;;;6.40;99.90;;;;;;4984429;28;20070;-82
2022/11/26 07:50:00;;;;;;;6.13;3.78;;;6.40;99.90;;;;;;4975815;28;20415;-83
2022/11/26 07:52:26;;;;;;;11.18;3.90;;;6.40;99.90;;;;;;4965732;28;20046;-81
2022/11/26 07:54:53;;;;;;;13.48;5.30;;;6.40;99.90;;;;;;4992241;28;20051;-81
2022/11/26 07:57:21;;;;;;;10.45;5.10;;;6.40;99.90;;;;;;4988458;28;20126;-80
2022/11/26 07:59:48;;;;;;;10.90;5.35;;;6.50;99.90;;;;;;4992822;28;20050;-79
2022/11/26 08:02:15;;;;;;;9.60;5.47;;;6.50;99.90;;;;;;4989314;28;20069;-82
2022/11/26 08:04:42;;;;;;;14.02;5.05;;;6.50;99.90;;;;;;4991256;28;20054;-82
2022/11/26 08:07:08;;;;;;;8.15;4.60;;;6.50;99.90;;;;;;4994663;28;20047;-81
2022/11/26 08:09:36;;;;;;;10.13;3.53;;;6.50;99.90;;;;;;4989961;28;20440;-82
2022/11/26 08:12:02;;;;;;;9.90;3.03;;;6.50;99.90;;;;;;4992321;28;20050;-80
2022/11/26 08:14:29;;;;;;;10.45;3.30;;;6.50;99.90;;;;;;4980059;28;20047;-83
2022/11/26 08:16:56;;;;;;;6.82;2.75;;;6.50;99.90;;;;;;4993745;28;20050;-83
2022/11/26 08:19:23;;;;;;;6.70;2.80;;;6.50;99.90;;;;;;4989849;28;20070;-81
2022/11/26 08:21:50;;;;;;;11.48;4.18;;;6.50;99.90;;;;;;4992363;28;20050;-83
2022/11/26 08:24:18;;;;;;;8.35;4.20;;;6.50;99.90;;;;;;4990042;28;20499;-80
2022/11/26 08:26:45;;;;;;;11.02;3.53;;;6.50;99.90;;;;;;4993924;28;20054;-79
2022/11/26 08:29:13;;;;;;;6.85;3.05;;;6.50;99.90;;;;;;4993640;28;20058;-80
2022/11/26 08:31:40;;;;;;;8.10;3.13;;;6.50;99.90;;;;;;4977430;28;20059;-80
2022/11/26 08:34:13;;;;;;;13.48;3.78;;;6.50;99.90;;;;;;4989156;28;20043;-82
2022/11/26 08:36:40;;;;;;;11.27;3.60;;;6.50;99.90;;;;;;4982394;28;20475;-83
2022/11/26 08:39:10;;;;;;;10.38;3.45;;;6.60;99.90;;;;;;4972187;28;20051;-81
2022/11/26 08:41:37;;;;;;;9.50;4.03;;;6.60;99.90;;;;;;4972114;28;20508;-81
2022/11/26 08:44:04;;;;;;;16.35;5.43;;;6.50;99.90;;;;;;4985427;28;20488;-79
2022/11/26 08:46:35;;;;;;;14.70;6.13;;;6.60;99.90;;;;;;4967624;28;20047;-78
2022/11/26 08:49:02;;;;;;;14.20;6.10;;;6.50;99.90;;;;;;4988231;28;20054;-78
2022/11/26 08:51:30;;;;;;;15.63;7.78;;;6.60;99.90;;;;;;4984820;28;20524;-78
2022/11/26 08:53:57;;;;;;;15.60;8.27;;;6.60;99.90;;;;;;4993237;28;20142;-84
2022/11/26 08:56:24;;;;;;;15.25;7.93;;;6.60;99.90;;;;;;4992951;28;20047;-82
2022/11/26 08:58:51;;;;;;;16.52;8.25;;;6.60;99.90;;;;;;4978728;28;20410;-82
2022/11/26 09:01:20;;;;;;;19.45;8.32;;;6.60;99.90;;;;;;4972976;28;20047;-84
2022/11/26 09:03:52;;;;;;;16.83;8.75;;;6.60;99.90;;;;;;4980746;28;20057;-84
2022/11/26 09:06:21;;;;;;;14.27;8.35;;;6.60;99.90;;;;;;4989467;28;20054;-79
2022/11/26 09:11:36;;;;;;;18.05;9.50;;;6.70;99.90;;;;;;4990765;28;20049;-83
2022/11/26 09:14:02;;;;;;;20.05;8.05;;;6.80;99.90;;;;;;4990445;28;20504;-82
2022/11/26 09:16:30;;;;;;;14.73;8.02;;;6.90;99.90;;;;;;4989206;28;20043;-82
2022/11/26 09:18:59;;;;;;;19.02;8.15;;;6.90;99.90;;;;;;4976049;28;20050;-84
2022/11/26 09:21:26;;;;;;;16.60;9.50;;;7.00;99.90;;;;;;4996061;28;20042;-82
2022/11/26 09:23:54;;;;;;;19.77;8.52;;;7.10;99.90;;;;;;4974715;28;20061;-83
2022/11/26 09:26:23;;;;;;;15.38;8.52;;;7.10;99.90;;;;;;4989184;28;20077;-83
2022/11/26 09:28:50;;;;;;;18.67;8.73;;;7.20;99.90;;;;;;4992384;28;20061;-84
2022/11/26 09:31:18;;;;;;;20.25;7.80;;;7.30;99.90;;;;;;4972557;28;20057;-83
2022/11/26 09:33:45;;;;;;;14.00;8.25;;;7.40;99.90;;;;;;4993155;28;20130;-82
2022/11/26 09:36:16;;;;;;;22.38;7.45;;;7.50;99.90;;;;;;4972592;28;20054;-81
2022/11/26 09:38:43;;;;;;;19.88;7.47;;;7.50;99.90;;;;;;4991269;28;20050;-83
2022/11/26 09:41:35;;;;;;;17.38;7.75;;;7.60;99.90;;;;;;4975659;28;20057;-82
2022/11/26 09:44:17;;;;;;;25.08;7.60;;;7.70;99.90;;;;;;4980528;28;20054;-83
2022/11/26 09:47:02;;;;;;;16.42;8.40;;;7.60;99.90;;;;;;4974024;28;20051;-83
2022/11/26 09:49:54;;;;;;;20.13;8.05;;;7.70;99.90;;;;;;4974351;28;20096;-83
2022/11/26 09:52:24;;;;;;;15.63;7.35;;;7.70;99.90;;;;;;4990082;28;20058;-84
2022/11/26 09:55:01;;;;;;;20.73;8.43;;;7.80;99.90;;;;;;4987920;28;20053;-83
2022/11/26 09:58:06;;;;;;;16.83;7.45;;;7.80;99.90;;;;;;4971468;28;20456;-79
2022/11/26 10:00:44;;;;;;;15.45;7.55;;;7.90;99.90;;;;;;4943198;28;20504;-81
2022/11/26 10:03:12;;;;;;;20.52;8.02;;;8.00;99.90;;;;;;4989439;28;20059;-80
2022/11/26 10:05:51;;;;;;;16.42;8.15;;;8.10;99.90;;;;;;4985769;28;20050;-80
2022/11/26 10:08:46;;;;;;;11.23;7.17;;;8.10;99.90;;;;;;4969668;28;20077;-82
2022/11/26 10:11:12;;;;;;;18.55;6.20;;;8.20;99.90;;;;;;4975799;28;20042;-80
2022/11/26 10:13:47;;;;;;;16.63;7.07;;;8.20;99.90;;;;;;4974260;28;20126;-79
2022/11/26 10:16:35;;;;;;;17.63;6.80;;;8.30;99.90;;;;;;4971202;28;20053;-84
2022/11/26 10:19:11;;;;;;;13.70;6.72;;;8.40;99.90;;;;;;4991966;28;20057;-84
2022/11/26 10:21:47;;;;;;;12.57;5.82;;;8.40;99.90;;;;;;4981530;28;20106;-84
2022/11/26 10:24:33;;;;;;;13.32;7.00;;;8.40;99.90;;;;;;4991276;28;20051;-84
2022/11/26 10:27:11;;;;;;;14.10;6.30;;;8.40;99.90;;;;;;4982366;28;20058;-85
2022/11/26 10:29:42;;;;;;;14.20;8.15;;;8.50;99.90;;;;;;4992944;28;20054;-85
2022/11/26 10:32:13;;;;;;;17.90;9.75;;;8.50;99.90;;;;;;4998144;28;20416;-80
2022/11/26 10:34:52;;;;;;;17.67;10.10;;;8.60;99.90;;;;;;4995812;28;20498;-82
2022/11/26 10:37:22;;;;;;;22.95;9.48;;;8.60;99.90;;;;;;4988982;28;20178;-81
2022/11/26 10:39:55;;;;;;;14.93;9.93;;;8.60;99.90;;;;;;4988206;28;20050;-82
2022/11/26 10:42:42;;;;;;;24.88;9.40;;;8.70;99.90;;;;;;4970816;28;20058;-81
2022/11/26 10:45:20;;;;;;;22.00;9.82;;;8.70;99.90;;;;;;4988035;28;20495;-83
2022/11/26 10:47:46;;;;;;;22.98;9.75;;;8.70;99.90;;;;;;4969833;28;20054;-83
2022/11/26 10:50:21;;;;;;;16.67;8.98;;;8.80;99.90;;;;;;4979124;28;20061;-82
2022/11/26 10:53:20;;;;;;;19.92;9.30;;;8.80;99.90;;;;;;4980398;28;20046;-82
2022/11/26 10:55:47;;;;;;;13.18;7.68;;;8.90;99.90;;;;;;4969809;28;20084;-81
2022/11/26 10:58:17;;;;;;;21.40;8.13;;;9.00;99.90;;;;;;4983902;28;20423;-81
2022/11/26 11:00:50;;;;;;;11.63;7.32;;;9.00;99.90;;;;;;4971612;28;20050;-82
2022/11/26 11:03:21;;;;;;;12.93;6.97;;;9.10;99.90;;;;;;4989195;28;20054;-81
2022/11/26 11:06:21;;;;;;;12.35;7.82;;;9.20;99.90;;;;;;4988670;28;20535;-83
2022/11/26 11:08:49;;;;;;;;;;;9.20;99.90;;;;;;4977563;28;20053;-84
2022/11/26 11:11:24;;;;;;;17.75;7.70;;;9.30;99.90;;;;;;4969992;28;19922;-81
2022/11/26 11:13:51;;;;;;;19.48;7.72;;;9.20;99.90;;;;;;4971533;28;20051;-82
2022/11/26 11:16:25;;;;;;;14.40;8.70;;;9.10;99.90;;;;;;4991037;28;20046;-81
2022/11/26 11:18:56;;;;;;;17.77;7.78;;;9.10;99.90;;;;;;4972579;28;20046;-84
2022/11/26 11:21:32;;;;;;;15.80;7.88;;;9.10;99.90;;;;;;4988090;28;20043;-85
2022/11/26 11:24:14;;;;;;;13.20;7.90;;;9.20;99.90;;;;;;4973201;28;20046;-85
2022/11/26 11:26:52;;;;;;;15.32;8.05;;;9.20;99.90;;;;;;4990774;28;20051;-83
2022/11/26 11:29:27;;;;;;;20.63;8.63;;;9.20;99.90;;;;;;4980418;28;20062;-81
2022/11/26 11:31:58;;;;;;;13.60;8.55;;;9.30;99.90;;;;;;4979165;28;20474;-82
2022/11/26 11:34:32;;;;;;;15.75;7.45;;;9.40;99.90;;;;;;4981978;28;20420;-84
2022/11/26 11:37:02;;;;;;;14.82;7.60;;;9.40;99.90;;;;;;4977473;28;20484;-84
2022/11/26 11:39:31;;;;;;;18.15;7.30;;;9.40;99.90;;;;;;4993709;28;20061;-84
2022/11/26 11:42:01;;;;;;;17.87;7.73;;;9.50;99.90;;;;;;4994763;28;20046;-83
2022/11/26 11:44:41;;;;;;;18.60;8.18;;;9.50;99.90;;;;;;4994888;28;20054;-82
2022/11/26 11:47:20;;;;;;;12.18;7.50;;;9.50;99.90;;;;;;4974765;28;20050;-82
2022/11/26 11:49:47;;;;;;;19.38;7.25;;;9.50;99.90;;;;;;4993546;28;20057;-83
2022/11/26 11:52:22;;;;;;;15.45;8.13;;;9.50;99.90;;;;;;5001241;28;20051;-82
2022/11/26 11:55:16;;;;;;;14.25;6.60;;;9.50;99.90;;;;;;5003417;28;20047;-81
2022/11/26 11:58:08;;;;;;;12.93;6.38;;;9.60;99.90;;;;;;4986034;28;20049;-82
2022/11/26 12:00:46;;;;;;;13.45;6.97;;;9.60;99.90;;;;;;4997420;28;20563;-82
2022/11/26 12:03:20;;;;;;;17.92;7.00;;;9.60;99.90;;;;;;4974830;28;20058;-83
2022/11/26 12:05:50;;;;;;;14.43;7.15;;;9.50;99.90;;;;;;4985920;28;20050;-83
2022/11/26 12:08:30;;;;;;;19.85;7.50;;;9.50;99.90;;;;;;4993853;28;20050;-83
2022/11/26 12:11:17;;;;;;;14.50;7.80;;;9.50;99.90;;;;;;4994508;28;20050;-84
2022/11/26 12:14:30;;;;;;;14.02;7.70;;;9.50;99.90;;;;;;4995241;28;20057;-83
2022/11/26 12:17:05;;;;;;;14.45;8.02;;;9.40;99.90;;;;;;4972111;28;20055;-82
2022/11/26 12:19:41;;;;;;;13.80;8.00;;;9.30;99.90;;;;;;4993531;28;20046;-82
2022/11/26 12:22:20;;;;;;;17.17;7.80;;;9.20;99.90;;;;;;4994549;28;20054;-82
2022/11/26 12:25:01;;;;;;;14.90;7.78;;;9.10;99.90;;;;;;4991301;28;20527;-82
2022/11/26 12:27:39;;;;;;;12.45;7.25;;;9.10;99.90;;;;;;4982099;28;20054;-82
2022/11/26 12:30:19;;;;;;;15.80;7.95;;;9.10;99.90;;;;;;4982203;28;20109;-82
2022/11/26 12:33:15;;;;;;;15.27;8.63;;;9.10;99.90;;;;;;4973532;28;20047;-82
2022/11/26 12:35:49;;;;;;;16.77;8.85;;;9.10;99.90;;;;;;4966462;28;20057;-82
2022/11/26 12:38:28;;;;;;;16.80;9.45;;;9.10;99.90;;;;;;4975909;28;20050;-83
2022/11/26 12:41:01;;;;;;;19.70;8.00;;;9.10;99.90;;;;;;4986589;28;20054;-84
2022/11/26 12:43:46;;;;;;;16.48;7.72;;;9.10;99.90;;;;;;4974527;28;20060;-84
2022/11/26 12:46:47;;;;;;;17.45;8.65;;;9.20;99.90;;;;;;4993912;28;20062;-83
2022/11/26 12:49:35;;;;;;;21.17;9.38;;;9.20;99.90;;;;;;4989192;28;20420;-83
2022/11/26 12:52:39;;;;;;;16.88;9.25;;;9.10;99.90;;;;;;4980624;28;20055;-83
2022/11/26 12:55:22;;;;;;;22.60;9.25;;;9.00;99.90;;;;;;4988637;28;20047;-84
2022/11/26 12:57:56;;;;;;;15.90;8.93;;;9.00;99.90;;;;;;4991423;28;20423;-83
2022/11/26 13:00:27;;;;;;;18.73;9.55;;;9.10;99.90;;;;;;4992693;28;20051;-82
2022/11/26 13:03:03;;;;;;;19.63;9.38;;;9.00;99.90;;;;;;4980705;28;20420;-83
2022/11/26 13:05:41;;;;;;;16.45;8.98;;;9.10;99.90;;;;;;4982271;28;20595;-84
2022/11/26 13:08:36;;;;;;;14.35;9.32;;;9.00;99.90;;;;;;4973410;28;20138;-84
2022/11/26 13:11:14;;;;;;;20.98;9.95;;;9.00;99.90;;;;;;4985630;28;20049;-84
2022/11/26 13:13:46;;;;;;;19.95;10.15;;;9.00;99.90;;;;;;4989926;28;20051;-84
2022/11/26 13:16:56;;;;;;;21.80;11.35;;;9.00;99.90;;;;;;4976725;28;20050;-84
2022/11/26 13:19:29;;;;;;;22.27;13.13;;;9.00;99.90;;;;;;4992252;28;20046;-84
2022/11/26 13:22:20;;;;;;;24.08;12.05;;;9.10;99.90;;;;;;4982538;28;20069;-82
2022/11/26 13:25:25;;;;;;;19.52;14.10;;;9.10;99.90;;;;;;4976631;28;20055;-83
2022/11/26 13:28:29;;;;;;;26.60;14.82;;;9.00;99.90;;;;;;4982194;28;20054;-84
2022/11/26 13:31:11;;;;;;;25.70;14.85;;;9.10;99.90;;;;;;4974183;28;20401;-83
2022/11/26 13:33:52;;;;;;;23.08;14.02;;;9.10;99.90;;;;;;4981617;28;20587;-83
2022/11/26 13:36:50;;;;;;;23.83;13.20;;;9.10;99.90;;;;;;4988976;28;20046;-82
2022/11/26 13:39:32;;;;;;;20.05;12.05;;;9.00;99.90;;;;;;4990010;28;20051;-83
2022/11/26 13:42:12;;;;;;;20.70;12.32;;;8.90;99.90;;;;;;4989314;28;20054;-83
2022/11/26 13:44:41;;;;;;;;;;;8.80;99.90;;;;;;4990592;28;20373;-83
2022/11/26 13:47:20;;;;;;;25.55;13.02;;;8.70;99.90;;;;;;4991943;28;19925;-83
2022/11/26 13:50:12;;;;;;;22.90;12.25;;;8.70;99.90;;;;;;4992325;28;20047;-83
2022/11/26 13:52:46;;;;;;;26.33;13.07;;;8.60;99.90;;;;;;4991031;28;20456;-82
2022/11/26 13:55:22;;;;;;;25.63;13.68;;;8.50;99.90;;;;;;4990450;28;20047;-84
2022/11/26 13:57:54;;;;;;;25.83;12.48;;;8.50;99.90;;;;;;4972375;28;20047;-84
2022/11/26 14:00:30;;;;;;;21.15;14.32;;;8.50;99.90;;;;;;4991669;28;20077;-83
2022/11/26 14:02:58;;;;;;;25.27;13.88;;;8.50;99.90;;;;;;4974019;28;20047;-83
2022/11/26 14:05:49;;;;;;;19.17;12.80;;;8.40;99.90;;;;;;4992028;28;20051;-83
2022/11/26 14:08:33;;;;;;;19.80;12.40;;;8.40;99.90;;;;;;4993031;28;20060;-84
2022/11/26 14:11:00;;;;;;;19.67;10.70;;;8.40;99.90;;;;;;4990428;28;20051;-83
2022/11/26 14:13:27;;;;;;;21.27;11.85;;;8.40;99.90;;;;;;4990963;28;20051;-83
2022/11/26 14:16:08;;;;;;;24.83;11.45;;;8.50;99.90;;;;;;4991938;28;20062;-83
2022/11/26 14:18:47;;;;;;;19.30;10.85;;;8.50;99.90;;;;;;4990858;28;20129;-83
2022/11/26 14:21:15;;;;;;;20.38;13.10;;;8.50;99.90;;;;;;4983636;28;20057;-84
2022/11/26 14:23:54;;;;;;;23.13;11.95;;;8.50;99.90;;;;;;4970975;28;20051;-81
2022/11/26 14:26:21;;;;;;;25.02;15.77;;;8.50;99.90;;;;;;4967640;28;20043;-83
2022/11/26 14:28:47;;;;;;;29.88;14.75;;;8.50;99.90;;;;;;4979744;28;20057;-84
2022/11/26 14:31:21;;;;;;;25.92;15.98;;;8.40;99.90;;;;;;4976178;28;20046;-83
2022/11/26 14:33:51;;;;;;;25.75;15.43;;;8.40;99.90;;;;;;4981582;28;20078;-82
2022/11/26 14:36:23;;;;;;;30.17;16.50;;;8.40;99.90;;;;;;4991932;28;20061;-83
2022/11/26 14:39:13;;;;;;;31.67;15.85;;;8.40;99.90;;;;;;4992079;28;20062;-82
2022/11/26 14:41:39;;;;;;;24.70;14.43;;;8.40;99.90;;;;;;4994417;28;20058;-83
2022/11/26 14:44:11;;;;;;;26.30;15.50;;;8.30;99.90;;;;;;4993612;28;20061;-82
2022/11/26 14:46:40;;;;;;;26.17;14.68;;;8.30;99.90;;;;;;4997157;28;20050;-82
2022/11/26 14:49:33;;;;;;;29.70;15.15;;;8.30;99.90;;;;;;4992862;28;20062;-83
2022/11/26 14:52:03;;;;;;;33.00;15.32;;;8.30;99.90;;;;;;4994934;28;20050;-82
2022/11/26 14:54:37;;;;;;;29.70;14.80;;;8.30;99.90;;;;;;4974243;28;20050;-84
2022/11/26 14:57:11;;;;;;;32.53;15.63;;;8.20;99.90;;;;;;4975410;28;20057;-82
2022/11/26 14:59:57;;;;;;;31.77;17.00;;;8.10;99.90;;;;;;4993477;28;20051;-82
2022/11/26 15:02:26;;;;;;;35.42;17.83;;;8.10;99.90;;;;;;4987269;28;20062;-82
2022/11/26 15:04:58;;;;;;;33.08;18.65;;;8.10;99.90;;;;;;4986585;28;20054;-82
2022/11/26 15:07:27;;;;;;;30.58;16.60;;;8.00;99.90;;;;;;4977205;28;20057;-83
2022/11/26 15:10:16;;;;;;;31.40;17.35;;;7.90;99.90;;;;;;4985971;28;20073;-82
2022/11/26 15:12:44;;;;;;;33.05;16.98;;;7.90;99.90;;;;;;4992258;28;20427;-83
2022/11/26 15:15:20;;;;;;;32.22;16.20;;;7.80;99.90;;;;;;4984867;28;20051;-84
2022/11/26 15:18:06;;;;;;;33.38;16.65;;;7.70;99.90;;;;;;4968928;28;20093;-79
2022/11/26 15:20:33;;;;;;;37.50;19.48;;;7.70;99.90;;;;;;4987833;28;20039;-80
2022/11/26 15:23:04;;;;;;;30.73;17.52;;;7.60;99.90;;;;;;4990169;28;20047;-81
2022/11/26 15:25:34;;;;;;;35.80;18.50;;;7.50;99.90;;;;;;4989005;28;20050;-81
2022/11/26 15:28:03;;;;;;;34.30;17.67;;;7.50;99.90;;;;;;4989975;28;20070;-81
2022/11/26 15:30:33;;;;;;;34.65;18.88;;;7.50;99.90;;;;;;4987489;28;20054;-82
2022/11/26 15:33:06;;;;;;;33.15;18.17;;;7.50;99.90;;;;;;4973237;28;20079;-82
2022/11/26 15:35:35;;;;;;;33.30;17.88;;;7.40;99.90;;;;;;4976408;28;20054;-83
2022/11/26 15:38:13;;;;;;;34.38;18.08;;;7.40;99.90;;;;;;4982938;28;20057;-81
2022/11/26 15:40:54;;;;;;;32.92;19.00;;;7.30;99.90;;;;;;4987770;28;20292;-81
2022/11/26 15:43:32;;;;;;;45.92;18.63;;;7.30;99.90;;;;;;4978684;28;20100;-80
2022/11/26 15:46:17;;;;;;;35.70;17.73;;;7.20;99.90;;;;;;4992504;28;20053;-82
2022/11/26 15:48:57;;;;;;;40.25;19.50;;;7.20;99.90;;;;;;4990925;28;20054;-81
2022/11/26 15:51:39;;;;;;;34.03;17.10;;;7.20;99.90;;;;;;4994762;28;20062;-81
2022/11/26 15:54:27;;;;;;;42.47;19.15;;;7.20;99.90;;;;;;4980702;28;20138;-82
2022/11/26 15:57:35;;;;;;;35.47;18.88;;;7.20;99.90;;;;;;4987657;28;20055;-82
2022/11/26 16:00:07;;;;;;;39.55;19.05;;;7.10;99.90;;;;;;4986483;28;20043;-81
2022/11/26 16:02:37;;;;;;;43.85;20.50;;;7.10;99.90;;;;;;4987925;28;20051;-81
2022/11/26 16:05:20;;;;;;;53.90;26.02;;;7.10;99.90;;;;;;4987944;28;20054;-82
2022/11/26 16:08:20;;;;;;;53.03;23.10;;;7.10;99.90;;;;;;4992357;28;20054;-81
2022/11/26 16:10:55;;;;;;;61.83;24.33;;;7.00;99.90;;;;;;4991334;28;20570;-81
2022/11/26 16:13:26;;;;;;;61.55;26.60;;;7.00;99.90;;;;;;4988589;28;20058;-82
2022/11/26 16:16:17;;;;;;;72.78;28.02;;;6.90;99.90;;;;;;4988943;28;20050;-82
2022/11/26 16:19:00;;;;;;;62.60;28.35;;;7.00;99.90;;;;;;4975910;28;20042;-81
2022/11/26 16:21:30;;;;;;;64.63;28.23;;;7.00;99.90;;;;;;4989961;28;20050;-82
2022/11/26 16:24:18;;;;;;;61.10;26.98;;;7.00;99.90;;;;;;4993855;28;20050;-81
2022/11/26 16:26:59;;;;;;;67.55;25.90;;;7.00;99.90;;;;;;4991511;28;20055;-82
2022/11/26 16:29:28;;;;;;;93.32;27.00;;;7.00;99.90;;;;;;4990496;28;20050;-81
2022/11/26 16:31:55;;;;;;;153.57;27.80;;;7.10;99.90;;;;;;4978113;28;20054;-80
2022/11/26 16:34:24;;;;;;;400.27;32.30;;;7.10;99.90;;;;;;4992545;28;20054;-82
2022/11/26 16:36:57;;;;;;;272.45;29.17;;;7.10;99.90;;;;;;4992331;28;20055;-81
2022/11/26 16:39:24;;;;;;;218.60;29.05;;;7.10;99.90;;;;;;4990832;28;20468;-81
2022/11/26 16:41:56;;;;;;;284.02;32.70;;;7.10;99.90;;;;;;4992379;28;20054;-82
2022/11/26 16:44:22;;;;;;;321.55;32.25;;;7.10;99.90;;;;;;4992289;28;20053;-82
2022/11/26 16:46:50;;;;;;;180.80;30.77;;;7.10;99.90;;;;;;4987343;28;20594;-82
2022/11/26 16:49:17;;;;;;;109.72;31.08;;;7.10;99.90;;;;;;4973786;28;20046;-80
2022/11/26 16:51:44;;;;;;;262.02;30.15;;;7.10;99.90;;;;;;4981825;28;20057;-81
2022/11/26 16:54:14;;;;;;;103.32;26.55;;;7.20;99.90;;;;;;4992648;28;20050;-82
2022/11/26 16:56:41;;;;;;;214.02;27.50;;;7.20;99.90;;;;;;4978538;28;20043;-82
2022/11/26 16:59:27;;;;;;;163.63;26.33;;;7.20;99.90;;;;;;4989480;28;20072;-81
2022/11/26 17:01:54;;;;;;;81.15;24.92;;;7.20;99.90;;;;;;4976070;28;20440;-82
2022/11/26 17:04:21;;;;;;;46.25;24.25;;;7.30;99.90;;;;;;4978432;28;20038;-83
2022/11/26 17:06:48;;;;;;;46.25;22.20;;;7.30;99.90;;;;;;4994637;28;20164;-82
2022/11/26 17:09:17;;;;;;;107.30;25.05;;;7.40;99.90;;;;;;4999364;28;20047;-82
2022/11/26 17:11:45;;;;;;;50.47;22.02;;;7.40;99.90;;;;;;4978926;28;20038;-81
2022/11/26 17:14:11;;;;;;;52.42;23.27;;;7.40;99.90;;;;;;4990027;28;20099;-81
2022/11/26 17:16:39;;;;;;;48.60;24.15;;;7.50;99.90;;;;;;4970778;28;20050;-83
2022/11/26 17:19:12;;;;;;;46.97;24.30;;;7.50;99.90;;;;;;4976901;28;20042;-81
2022/11/26 17:21:39;;;;;;;54.28;24.92;;;7.50;99.90;;;;;;4973636;28;20061;-82
2022/11/26 17:24:06;;;;;;;53.53;24.27;;;7.50;99.90;;;;;;4989435;28;20051;-79
2022/11/26 17:26:32;;;;;;;42.55;22.30;;;7.60;99.90;;;;;;4992391;28;20057;-81
2022/11/26 17:29:00;;;;;;;49.80;23.98;;;7.60;99.90;;;;;;4987250;28;20047;-83
2022/11/26 17:31:28;;;;;;;176.25;24.83;;;7.60;99.90;;;;;;4985594;28;20058;-83
2022/11/26 17:33:55;;;;;;;83.03;24.55;;;7.60;99.90;;;;;;4984342;28;20090;-81
2022/11/26 17:36:22;;;;;;;96.25;27.55;;;7.60;99.90;;;;;;4987842;28;20050;-80
2022/11/26 17:38:49;;;;;;;59.00;26.80;;;7.60;99.90;;;;;;4985207;28;20054;-83
2022/11/26 17:41:16;;;;;;;49.22;24.90;;;7.70;99.90;;;;;;4993038;28;20049;-81
2022/11/26 17:43:43;;;;;;;61.33;24.20;;;7.70;99.90;;;;;;4988346;28;20499;-82
2022/11/26 17:46:18;;;;;;;82.47;24.67;;;7.70;99.90;;;;;;4986399;28;20053;-82
2022/11/26 17:48:47;;;;;;;49.55;24.60;;;7.70;99.90;;;;;;4992539;28;20101;-82
2022/11/26 17:51:14;;;;;;;100.32;23.90;;;7.60;99.90;;;;;;4980110;28;20042;-81
2022/11/26 17:53:42;;;;;;;72.15;27.42;;;7.50;99.90;;;;;;4994473;28;20054;-81
2022/11/26 17:56:21;;;;;;;79.35;25.75;;;7.60;99.90;;;;;;4985518;28;20038;-79
2022/11/26 17:58:48;;;;;;;114.05;23.33;;;7.50;99.90;;;;;;4984094;28;20053;-82
2022/11/26 18:01:15;;;;;;;47.60;21.98;;;7.50;99.90;;;;;;4974845;28;20058;-81
2022/11/26 18:03:43;;;;;;;57.13;22.15;;;7.50;99.90;;;;;;4977291;28;20074;-81
2022/11/26 18:06:17;;;;;;;64.78;22.70;;;7.50;99.90;;;;;;4989974;28;20054;-80
2022/11/26 18:08:44;;;;;;;61.65;22.27;;;7.50;99.90;;;;;;4991236;28;20430;-82
2022/11/26 18:11:13;;;;;;;45.17;23.30;;;7.50;99.90;;;;;;4989089;28;20430;-82
2022/11/26 18:13:40;;;;;;;47.70;21.83;;;7.50;99.90;;;;;;4973644;28;20061;-81
2022/11/26 18:16:07;;;;;;;41.55;20.50;;;7.50;99.90;;;;;;4978253;28;20062;-82
2022/11/26 18:18:33;;;;;;;46.17;22.80;;;7.50;99.90;;;;;;4990554;28;20050;-81
2022/11/26 18:21:00;;;;;;;41.78;21.15;;;7.50;99.90;;;;;;4971358;28;20047;-81
2022/11/26 18:23:26;;;;;;;35.63;19.52;;;7.50;99.90;;;;;;4990714;28;20057;-81
2022/11/26 18:25:53;;;;;;;38.83;19.35;;;7.50;99.90;;;;;;4989218;28;20055;-82
2022/11/26 18:28:20;;;;;;;34.67;18.25;;;7.50;99.90;;;;;;4990015;28;20073;-82
2022/11/26 18:30:47;;;;;;;31.17;18.08;;;7.50;99.90;;;;;;4978290;28;20070;-82
2022/11/26 18:33:14;;;;;;;38.70;19.50;;;7.50;99.90;;;;;;4970287;28;20085;-82
2022/11/26 18:35:41;;;;;;;36.95;18.42;;;7.60;99.90;;;;;;4973426;28;20054;-82
2022/11/26 18:38:10;;;;;;;31.20;18.15;;;7.60;99.90;;;;;;4979260;28;20054;-81
2022/11/26 18:40:37;;;;;;;29.98;17.17;;;7.60;99.90;;;;;;4989324;28;20046;-81
2022/11/26 18:43:04;;;;;;;31.67;17.25;;;7.60;99.90;;;;;;4988207;28;20046;-83
2022/11/26 18:45:31;;;;;;;44.22;18.17;;;7.60;99.90;;;;;;4990423;28;20050;-81
2022/11/26 18:47:58;;;;;;;30.70;16.00;;;7.50;99.90;;;;;;4988339;28;20508;-82
2022/11/26 18:50:25;;;;;;;33.53;17.35;;;7.50;99.90;;;;;;4992064;28;20050;-81
2022/11/26 18:52:54;;;;;;;36.95;17.75;;;7.50;99.90;;;;;;4990138;28;20578;-81
2022/11/26 18:55:21;;;;;;;26.58;16.05;;;7.50;99.90;;;;;;4986597;28;20053;-81
2022/11/26 18:57:48;;;;;;;38.55;19.23;;;7.50;99.90;;;;;;4989881;28;20079;-81
2022/11/26 19:00:15;;;;;;;29.10;17.00;;;7.60;99.90;;;;;;4986132;28;20097;-81
2022/11/26 19:02:41;;;;;;;28.45;16.80;;;7.50;99.90;;;;;;4990169;28;20050;-80
2022/11/26 19:05:08;;;;;;;28.20;16.35;;;7.60;99.90;;;;;;4977079;28;20058;-81
2022/11/26 19:07:36;;;;;;;31.70;16.85;;;7.60;99.90;;;;;;4989733;28;20054;-81
2022/11/26 19:10:03;;;;;;;39.53;17.67;;;7.60;99.90;;;;;;4987968;28;20141;-81
2022/11/26 19:12:30;;;;;;;30.10;15.32;;;7.60;99.90;;;;;;4972256;28;20058;-81
2022/11/26 19:14:57;;;;;;;31.98;17.92;;;7.60;99.90;;;;;;4977023;28;20051;-81
2022/11/26 19:17:23;;;;;;;33.38;17.30;;;7.60;99.90;;;;;;4969147;28;20051;-80
2022/11/26 19:19:50;;;;;;;29.67;17.15;;;7.60;99.90;;;;;;4976328;28;20062;-81
2022/11/26 19:22:16;;;;;;;41.55;21.50;;;7.60;99.90;;;;;;4969080;28;20043;-83
2022/11/26 19:24:43;;;;;;;38.15;21.50;;;7.60;99.90;;;;;;4989331;28;20073;-80
2022/11/26 19:27:11;;;;;;;42.95;22.33;;;7.60;99.90;;;;;;4986238;28;20057;-81
2022/11/26 19:29:38;;;;;;;37.10;20.65;;;7.60;99.90;;;;;;4990258;28;20050;-82
2022/11/26 19:32:05;;;;;;;37.25;21.30;;;7.60;99.90;;;;;;4987151;28;20058;-81
2022/11/26 19:34:31;;;;;;;39.15;22.60;;;7.60;99.90;;;;;;4990413;28;20054;-80
2022/11/26 19:36:58;;;;;;;42.97;24.05;;;7.60;99.90;;;;;;4977373;28;20054;-80
2022/11/26 19:39:25;;;;;;;41.33;23.27;;;7.60;99.90;;;;;;4969541;28;20055;-82
2022/11/26 19:41:51;;;;;;;41.60;21.02;;;7.60;99.90;;;;;;4977228;28;20050;-82
2022/11/26 19:44:18;;;;;;;38.40;18.75;;;7.50;99.90;;;;;;4990065;28;20056;-81
2022/11/26 19:46:46;;;;;;;30.65;16.55;;;7.50;99.90;;;;;;4986684;28;20047;-81
2022/11/26 19:49:14;;;;;;;36.40;17.58;;;7.50;99.90;;;;;;4990433;28;20057;-81
2022/11/26 19:51:41;;;;;;;30.67;17.42;;;7.50;99.90;;;;;;4987173;28;20054;-82
2022/11/26 19:54:09;;;;;;;33.33;16.40;;;7.50;99.90;;;;;;4996951;28;20050;-81
2022/11/26 19:56:36;;;;;;;28.67;16.13;;;7.50;99.90;;;;;;4977515;28;20053;-80
2022/11/26 19:59:03;;;;;;;26.02;15.07;;;7.50;99.90;;;;;;4980972;28;20051;-81
2022/11/26 20:01:31;;;;;;;28.95;15.40;;;7.50;99.90;;;;;;4981103;28;20519;-81
2022/11/26 20:04:00;;;;;;;28.08;16.42;;;7.50;99.90;;;;;;4972152;28;20132;-80
2022/11/26 20:06:29;;;;;;;29.27;16.38;;;7.50;99.90;;;;;;4986531;28;20053;-82
2022/11/26 20:08:57;;;;;;;37.30;19.10;;;7.50;99.90;;;;;;4974688;28;20050;-81
2022/11/26 20:11:25;;;;;;;26.58;16.30;;;7.40;99.90;;;;;;4992424;28;20050;-81
2022/11/26 20:13:52;;;;;;;28.10;15.35;;;7.40;99.90;;;;;;4991286;28;20464;-80
2022/11/26 20:16:25;;;;;;;30.02;15.45;;;7.40;99.90;;;;;;4992531;28;20438;-82